Search for airport 
image banner adimage banner adimage banner ad
image banner ad

2O3 - Angwin-Parrett Field

Located in Angwin, United States

ICAO - 2O3, IATA -

Data provided by Airmate  

General information

Coordinates: N38°34'48" W122°26'8"
Elevation is 1875 feet MSL.
Magnetic variation is 16° East
View others Airports in California

Operational data

Special qualification required
Current time UTC:
Current local time:
METAR: KSTS 210853Z AUTO VRB04KT 10SM OVC009 13/11 A2990 RMK AO2 SLP119 T01280111 50000
TAF: KSTS 210559Z 2106/2206 17006KT P6SM BKN007 FM210800 VRB05KT P6SM BKN007 FM211000 VRB05KT 2SM BR OVC006 FM211700 18005KT P6SM SCT010 FM212100 19009KT P6SM BKN250 FM220500 17006KT P6SM SCT020
View NOTAMs / SUP AIP / TFR affecting this airport [VIEW]
Communications frequencies: [VIEW]

Runways:

RWY identifierQFULength (ft)Width (ft)SurfaceLDA (ft)
16321750ASPH
34321750ASPH

Airport contact information

Address: Angwin United States

Satellite view of 2O3